Hobson, TX (78117)

9:40 PM CST on December 17, 2014 (GMT -0600)
Karnes County | Change Station
CLOSE
Current Station
Personal Weather Station
Location: Karnes City, TX
Elevation: 381 ft
Nearby Weather Stations

Elev 381 ft 28.88 °N, 97.86 °W | Updated 20 seconds ago

Overcast
Overcast
65.8 °F
Feels Like 65.8 °F
N
8.1
Wind Variable Wind from ESE
Gusts 11.0 mph

Today
High -- | Low -- °F
--% Chance of Precip.
Yesterday
High -- | Low -- °F
Precip. -- in
7:19 AM 5:37 PM
Waning Crescent, 17% visible
Pressure 30.07 in
Visibility 10.0 miles
Clouds Overcast 7000 ft
Dew Point 64 °F
Humidity 92%
Rainfall 0.00 in
Snow Depth Not available.
UV 12.1 out of 12
Pollen 7.40 out of 12
Air Quality Not available.
Flu Activity Not available.
METAR KPEZ 180335Z AUTO 00000KT 10SM OVC070 16/12 A3007 RMK AO2 T01560124

More Conditions Fewer Conditions

Pressure 30.07 in
Visibility 10.0 miles
Clouds Overcast 7000 ft
Dew Point 64 °F
Humidity 92%
Rainfall 0.00 in
Snow Depth Not available.
UV 12.1 out of 12
Pollen 7.40 out of 12
Air Quality Not available.
Flu Activity Not available.
METAR KPEZ 180335Z AUTO 00000KT 10SM OVC070 16/12 A3007 RMK AO2 T01560124

More Conditions Fewer Conditions

Nowcast | as of 9:23 PM CST on December 17, 2014

Through 11 PM...patchy light drizzle will move northeast across south central Texas. Spotty rainfall amounts of a few hundredths of an inch are possible. Patchy fog will continue to develop across the region with visibilities generally 3 to 5 miles. Motorists should exercise caution and slow down in areas of fog as visibilities may drop rapidly. Remember to use the low beam headlights in areas of fog.

×

10-Day Weather Forecast

Almanac

Astronomy

Dec. 17, 2014 Rise Set
Actual Time
Civil Twilight
Nautical Twilight
Astronomical Twilight
Moon
Length of Visible Light
Length of Day
Tomorrow will be .
, % of the Moon is Illuminated

Today's Extremes

State Highs State Lows

Community

WunderPhotos

Upload Photos

1,778,879 photos uploaded!

WunderBlogs® & News

Nearby

Air Quality

  Air Quality AQ Index Pollutant
Not available.

Snow Depth

Station Depth Elevation

Earthquake Activity

City Distance Mag. Time & Date
Minimum magnitude displayed is 2.5.

Coastal Water Temperatures

Place Temperature

Nearby Weather Stations